sensor_id;sensor_type;location;lat;lon;timestamp;pressure;altitude;pressure_sealevel;temperature;humidity
21863;BME280;11096;51.338;12.524;2023-04-08T00:00:18;100536.72;;;12.79;nan
21863;BME280;11096;51.338;12.524;2023-04-08T00:02:43;100541.47;;;12.98;nan
21863;BME280;11096;51.338;12.524;2023-04-08T00:05:10;100531.53;;;13.03;nan
21863;BME280;11096;51.338;12.524;2023-04-08T00:07:35;100533.06;;;13.05;nan
21863;BME280;11096;51.338;12.524;2023-04-08T00:10:01;100527.22;;;13.02;nan
21863;BME280;11096;51.338;12.524;2023-04-08T00:12:27;100526.31;;;13.03;nan
21863;BME280;11096;51.338;12.524;2023-04-08T00:14:52;100529.50;;;13.06;nan
21863;BME280;11096;51.338;12.524;2023-04-08T00:17:17;100524.75;;;13.00;nan
21863;BME280;11096;51.338;12.524;2023-04-08T00:19:43;100533.56;;;13.10;nan
21863;BME280;11096;51.338;12.524;2023-04-08T00:22:09;100532.00;;;13.08;nan
21863;BME280;11096;51.338;12.524;2023-04-08T00:24:35;100530.97;;;13.10;nan
21863;BME280;11096;51.338;12.524;2023-04-08T00:27:01;100529.06;;;13.13;nan
21863;BME280;11096;51.338;12.524;2023-04-08T00:29:27;100529.41;;;13.08;nan
21863;BME280;11096;51.338;12.524;2023-04-08T00:31:52;100528.81;;;13.04;nan
21863;BME280;11096;51.338;12.524;2023-04-08T00:34:18;100528.66;;;12.95;nan
21863;BME280;11096;51.338;12.524;2023-04-08T00:36:44;100531.78;;;13.11;nan
21863;BME280;11096;51.338;12.524;2023-04-08T00:39:12;100526.41;;;13.01;nan
21863;BME280;11096;51.338;12.524;2023-04-08T00:41:37;100531.28;;;13.06;nan
21863;BME280;11096;51.338;12.524;2023-04-08T00:44:03;100525.69;;;12.99;nan
21863;BME280;11096;51.338;12.524;2023-04-08T00:46:30;100529.50;;;13.06;nan
21863;BME280;11096;51.338;12.524;2023-04-08T00:48:55;100528.81;;;13.04;nan
21863;BME280;11096;51.338;12.524;2023-04-08T00:51:21;100533.50;;;12.99;nan
21863;BME280;11096;51.338;12.524;2023-04-08T00:53:46;100537.06;;;12.98;nan
21863;BME280;11096;51.338;12.524;2023-04-08T00:56:12;100532.31;;;12.92;nan
21863;BME280;11096;51.338;12.524;2023-04-08T00:58:37;100526.03;;;12.95;nan
21863;BME280;11096;51.338;12.524;2023-04-08T01:01:12;100526.47;;;13.13;nan
21863;BME280;11096;51.338;12.524;2023-04-08T01:04:00;100531.03;;;12.98;nan
21863;BME280;11096;51.338;12.524;2023-04-08T01:06:49;100525.06;;;13.20;nan
21863;BME280;11096;51.338;12.524;2023-04-08T01:09:18;100522.16;;;13.11;nan
21863;BME280;11096;51.338;12.524;2023-04-08T01:11:48;100530.22;;;13.08;nan
21863;BME280;11096;51.338;12.524;2023-04-08T01:14:18;100529.50;;;13.06;nan
21863;BME280;11096;51.338;12.524;2023-04-08T01:16:45;100531.75;;;13.00;nan
21863;BME280;11096;51.338;12.524;2023-04-08T01:19:22;100533.06;;;13.05;nan
21863;BME280;11096;51.338;12.524;2023-04-08T01:21:50;100534.91;;;12.92;nan
21863;BME280;11096;51.338;12.524;2023-04-08T01:24:39;100539.59;;;13.11;nan
21863;BME280;11096;51.338;12.524;2023-04-08T01:27:07;100537.47;;;13.05;nan
21863;BME280;11096;51.338;12.524;2023-04-08T01:29:34;100537.31;;;12.95;nan
21863;BME280;11096;51.338;12.524;2023-04-08T01:32:01;100532.81;;;12.97;nan
21863;BME280;11096;51.338;12.524;2023-04-08T01:34:28;100531.41;;;13.04;nan
21863;BME280;11096;51.338;12.524;2023-04-08T01:36:55;100539.69;;;12.98;nan
21863;BME280;11096;51.338;12.524;2023-04-08T01:39:23;100542.06;;;13.01;nan
21863;BME280;11096;51.338;12.524;2023-04-08T01:41:51;100531.13;;;13.20;nan
21863;BME280;11096;51.338;12.524;2023-04-08T01:44:18;100536.75;;;13.27;nan
21863;BME280;11096;51.338;12.524;2023-04-08T01:46:46;100540.72;;;13.20;nan
21863;BME280;11096;51.338;12.524;2023-04-08T01:49:14;100538.16;;;13.31;nan
21863;BME280;11096;51.338;12.524;2023-04-08T01:51:40;100537.88;;;13.23;nan
21863;BME280;11096;51.338;12.524;2023-04-08T01:54:06;100533.34;;;13.14;nan
21863;BME280;11096;51.338;12.524;2023-04-08T01:56:36;100527.22;;;13.26;nan
21863;BME280;11096;51.338;12.524;2023-04-08T01:59:05;100523.19;;;13.22;nan
21863;BME280;11096;51.338;12.524;2023-04-08T02:01:34;100520.34;;;13.01;nan
21863;BME280;11096;51.338;12.524;2023-04-08T02:04:00;100525.75;;;13.10;nan
21863;BME280;11096;51.338;12.524;2023-04-08T02:06:27;100529.78;;;13.15;nan
21863;BME280;11096;51.338;12.524;2023-04-08T02:08:54;100525.25;;;13.05;nan
21863;BME280;11096;51.338;12.524;2023-04-08T02:11:20;100530.38;;;13.07;nan
21863;BME280;11096;51.338;12.524;2023-04-08T02:13:45;100533.34;;;13.14;nan
21863;BME280;11096;51.338;12.524;2023-04-08T02:16:18;100533.47;;;13.12;nan
21863;BME280;11096;51.338;12.524;2023-04-08T02:18:55;100532.75;;;13.34;nan
21863;BME280;11096;51.338;12.524;2023-04-08T02:21:26;100531.84;;;13.22;nan
21863;BME280;11096;51.338;12.524;2023-04-08T02:23:53;100525.75;;;13.10;nan
21863;BME280;11096;51.338;12.524;2023-04-08T02:26:19;100536.19;;;13.10;nan
21863;BME280;11096;51.338;12.524;2023-04-08T02:28:48;100531.44;;;13.16;nan
21863;BME280;11096;51.338;12.524;2023-04-08T02:31:16;100531.00;;;13.22;nan
21863;BME280;11096;51.338;12.524;2023-04-08T02:33:42;100535.03;;;13.15;nan
21863;BME280;11096;51.338;12.524;2023-04-08T02:36:09;100527.78;;;13.18;nan
21863;BME280;11096;51.338;12.524;2023-04-08T02:38:35;100527.38;;;13.11;nan
21863;BME280;11096;51.338;12.524;2023-04-08T02:41:00;100537.50;;;13.16;nan
21863;BME280;11096;51.338;12.524;2023-04-08T02:43:26;100534.16;;;13.14;nan
21863;BME280;11096;51.338;12.524;2023-04-08T02:46:00;100534.63;;;13.08;nan
21863;BME280;11096;51.338;12.524;2023-04-08T02:48:28;100532.69;;;12.99;nan
21863;BME280;11096;51.338;12.524;2023-04-08T02:50:53;100529.50;;;13.06;nan
21863;BME280;11096;51.338;12.524;2023-04-08T02:53:19;100536.41;;;13.07;nan
21863;BME280;11096;51.338;12.524;2023-04-08T02:55:44;100538.28;;;13.05;nan
21863;BME280;11096;51.338;12.524;2023-04-08T02:58:10;100537.56;;;13.03;nan
21863;BME280;11096;51.338;12.524;2023-04-08T03:00:35;100543.75;;;13.02;nan
21863;BME280;11096;51.338;12.524;2023-04-08T03:03:04;100550.00;;;13.00;nan
21863;BME280;11096;51.338;12.524;2023-04-08T03:05:30;100548.72;;;13.05;nan
21863;BME280;11096;51.338;12.524;2023-04-08T03:07:56;100540.06;;;13.05;nan
21863;BME280;11096;51.338;12.524;2023-04-08T03:10:21;100540.19;;;13.03;nan
21863;BME280;11096;51.338;12.524;2023-04-08T03:12:46;100542.78;;;13.03;nan
21863;BME280;11096;51.338;12.524;2023-04-08T03:15:12;100543.50;;;13.05;nan
21863;BME280;11096;51.338;12.524;2023-04-08T03:17:37;100546.63;;;13.10;nan
21863;BME280;11096;51.338;12.524;2023-04-08T03:20:03;100549.78;;;13.03;nan
21863;BME280;11096;51.338;12.524;2023-04-08T03:22:32;100553.94;;;13.05;nan
21863;BME280;11096;51.338;12.524;2023-04-08T03:24:58;100552.81;;;12.97;nan
21863;BME280;11096;51.338;12.524;2023-04-08T03:27:23;100548.09;;;13.02;nan
21863;BME280;11096;51.338;12.524;2023-04-08T03:29:49;100552.63;;;13.00;nan
21863;BME280;11096;51.338;12.524;2023-04-08T03:32:14;100558.28;;;12.94;nan
21863;BME280;11096;51.338;12.524;2023-04-08T03:34:39;100561.00;;;12.92;nan
21863;BME280;11096;51.338;12.524;2023-04-08T03:37:05;100574.41;;;12.99;nan
21863;BME280;11096;51.338;12.524;2023-04-08T03:39:30;100565.28;;;12.93;nan
21863;BME280;11096;51.338;12.524;2023-04-08T03:41:56;100567.38;;;12.88;nan
21863;BME280;11096;51.338;12.524;2023-04-08T03:44:23;100570.81;;;12.88;nan
21863;BME280;11096;51.338;12.524;2023-04-08T03:46:49;100571.31;;;12.94;nan
21863;BME280;11096;51.338;12.524;2023-04-08T03:49:15;100571.78;;;12.87;nan
21863;BME280;11096;51.338;12.524;2023-04-08T03:51:40;100571.59;;;12.78;nan
21863;BME280;11096;51.338;12.524;2023-04-08T03:54:05;100568.16;;;12.64;nan
21863;BME280;11096;51.338;12.524;2023-04-08T03:56:31;100566.03;;;12.45;nan
21863;BME280;11096;51.338;12.524;2023-04-08T03:58:57;100566.66;;;12.49;nan
21863;BME280;11096;51.338;12.524;2023-04-08T04:01:22;100561.31;;;12.63;nan
21863;BME280;11096;51.338;12.524;2023-04-08T04:03:48;100565.31;;;12.80;nan
21863;BME280;11096;51.338;12.524;2023-04-08T04:06:13;100560.19;;;12.79;nan
21863;BME280;11096;51.338;12.524;2023-04-08T04:08:38;100564.09;;;12.73;nan
21863;BME280;11096;51.338;12.524;2023-04-08T04:11:04;100573.88;;;12.70;nan
21863;BME280;11096;51.338;12.524;2023-04-08T04:13:30;100587.34;;;12.27;nan
21863;BME280;11096;51.338;12.524;2023-04-08T04:15:55;100589.16;;;12.50;nan
21863;BME280;11096;51.338;12.524;2023-04-08T04:18:21;100584.59;;;13.74;nan
21863;BME280;11096;51.338;12.524;2023-04-08T04:20:47;100577.97;;;13.81;nan
21863;BME280;11096;51.338;12.524;2023-04-08T04:23:12;100578.06;;;13.80;nan
21863;BME280;11096;51.338;12.524;2023-04-08T04:25:40;100597.22;;;14.03;nan
21863;BME280;11096;51.338;12.524;2023-04-08T04:28:05;100590.78;;;13.84;nan
21863;BME280;11096;51.338;12.524;2023-04-08T04:30:32;100592.22;;;13.88;nan
21863;BME280;11096;51.338;12.524;2023-04-08T04:32:57;100592.78;;;13.81;nan
21863;BME280;11096;51.338;12.524;2023-04-08T04:35:23;100589.00;;;13.85;nan
21863;BME280;11096;51.338;12.524;2023-04-08T04:37:48;100591.63;;;13.85;nan
21863;BME280;11096;51.338;12.524;2023-04-08T04:40:16;100585.09;;;13.90;nan
21863;BME280;11096;51.338;12.524;2023-04-08T04:42:41;100591.75;;;13.83;nan
21863;BME280;11096;51.338;12.524;2023-04-08T04:45:07;100596.25;;;13.92;nan
21863;BME280;11096;51.338;12.524;2023-04-08T04:47:34;100593.63;;;13.81;nan
21863;BME280;11096;51.338;12.524;2023-04-08T04:49:59;100593.03;;;13.78;nan
21863;BME280;11096;51.338;12.524;2023-04-08T04:52:25;100598.13;;;13.79;nan
21863;BME280;11096;51.338;12.524;2023-04-08T04:54:50;100591.22;;;13.67;nan
21863;BME280;11096;51.338;12.524;2023-04-08T04:57:16;100593.13;;;13.65;nan
21863;BME280;11096;51.338;12.524;2023-04-08T04:59:41;100600.00;;;13.66;nan
21863;BME280;11096;51.338;12.524;2023-04-08T05:02:06;100606.56;;;13.71;nan
21863;BME280;11096;51.338;12.524;2023-04-08T05:04:32;100609.75;;;13.75;nan
21863;BME280;11096;51.338;12.524;2023-04-08T05:07:00;100619.09;;;14.02;nan
21863;BME280;11096;51.338;12.524;2023-04-08T05:09:26;100619.72;;;13.35;nan
21863;BME280;11096;51.338;12.524;2023-04-08T05:11:51;100622.09;;;13.38;nan
21863;BME280;11096;51.338;12.524;2023-04-08T05:14:16;100626.72;;;13.34;nan
21863;BME280;11096;51.338;12.524;2023-04-08T05:16:42;100623.38;;;13.32;nan
21863;BME280;11096;51.338;12.524;2023-04-08T05:19:07;100628.13;;;13.38;nan
21863;BME280;11096;51.338;12.524;2023-04-08T05:21:32;100633.69;;;13.58;nan
21863;BME280;11096;51.338;12.524;2023-04-08T05:23:58;100622.19;;;13.60;nan
21863;BME280;11096;51.338;12.524;2023-04-08T05:26:23;100627.31;;;13.62;nan
21863;BME280;11096;51.338;12.524;2023-04-08T05:28:49;100637.44;;;13.78;nan
21863;BME280;11096;51.338;12.524;2023-04-08T05:31:18;100632.47;;;13.50;nan
21863;BME280;11096;51.338;12.524;2023-04-08T05:33:44;100637.31;;;13.44;nan
21863;BME280;11096;51.338;12.524;2023-04-08T05:36:11;100632.94;;;13.44;nan
21863;BME280;11096;51.338;12.524;2023-04-08T05:38:37;100639.94;;;13.44;nan
21863;BME280;11096;51.338;12.524;2023-04-08T05:41:02;100633.13;;;13.41;nan
21863;BME280;11096;51.338;12.524;2023-04-08T05:43:28;100629.81;;;13.39;nan
21863;BME280;11096;51.338;12.524;2023-04-08T05:45:53;100631.03;;;13.46;nan
21863;BME280;11096;51.338;12.524;2023-04-08T05:48:19;100624.34;;;13.66;nan
21863;BME280;11096;51.338;12.524;2023-04-08T05:50:44;100641.34;;;13.72;nan
21863;BME280;11096;51.338;12.524;2023-04-08T05:53:12;100642.53;;;13.79;nan
21863;BME280;11096;51.338;12.524;2023-04-08T05:55:37;100639.31;;;14.11;nan
21863;BME280;11096;51.338;12.524;2023-04-08T05:58:03;100639.81;;;13.81;nan
21863;BME280;11096;51.338;12.524;2023-04-08T06:00:28;100646.72;;;13.93;nan
21863;BME280;11096;51.338;12.524;2023-04-08T06:02:54;100641.69;;;14.25;nan
21863;BME280;11096;51.338;12.524;2023-04-08T06:05:19;100649.72;;;14.00;nan
21863;BME280;11096;51.338;12.524;2023-04-08T06:07:44;100646.47;;;14.43;nan
21863;BME280;11096;51.338;12.524;2023-04-08T06:10:10;100648.38;;;14.63;nan
21863;BME280;11096;51.338;12.524;2023-04-08T06:12:36;100652.44;;;14.67;nan
21863;BME280;11096;51.338;12.524;2023-04-08T06:15:06;100658.72;;;14.76;nan
21863;BME280;11096;51.338;12.524;2023-04-08T06:17:32;100661.00;;;14.58;nan
21863;BME280;11096;51.338;12.524;2023-04-08T06:19:57;100664.09;;;14.63;nan
21863;BME280;11096;51.338;12.524;2023-04-08T06:22:22;100663.38;;;14.72;nan
21863;BME280;11096;51.338;12.524;2023-04-08T06:24:48;100666.31;;;14.90;nan
21863;BME280;11096;51.338;12.524;2023-04-08T06:27:13;100662.63;;;14.93;nan
21863;BME280;11096;51.338;12.524;2023-04-08T06:29:39;100666.69;;;14.86;nan
21863;BME280;11096;51.338;12.524;2023-04-08T06:32:05;100674.91;;;14.92;nan
21863;BME280;11096;51.338;12.524;2023-04-08T06:34:30;100683.81;;;14.56;nan
21863;BME280;11096;51.338;12.524;2023-04-08T06:36:56;100693.06;;;14.49;nan
21863;BME280;11096;51.338;12.524;2023-04-08T06:39:22;100693.63;;;14.41;nan
21863;BME280;11096;51.338;12.524;2023-04-08T06:41:47;100692.09;;;14.38;nan
21863;BME280;11096;51.338;12.524;2023-04-08T06:44:13;100695.94;;;14.57;nan
21863;BME280;11096;51.338;12.524;2023-04-08T06:46:38;100697.31;;;14.38;nan
21863;BME280;11096;51.338;12.524;2023-04-08T06:49:03;100711.53;;;14.12;nan
21863;BME280;11096;51.338;12.524;2023-04-08T06:51:31;100701.69;;;14.15;nan
21863;BME280;11096;51.338;12.524;2023-04-08T06:53:56;100707.34;;;14.09;nan
21863;BME280;11096;51.338;12.524;2023-04-08T06:56:22;100717.56;;;14.12;nan
21863;BME280;11096;51.338;12.524;2023-04-08T06:58:50;100712.63;;;14.21;nan
21863;BME280;11096;51.338;12.524;2023-04-08T07:01:16;100715.09;;;14.22;nan
21863;BME280;11096;51.338;12.524;2023-04-08T07:03:41;100712.97;;;14.16;nan
21863;BME280;11096;51.338;12.524;2023-04-08T07:06:07;100716.56;;;14.26;nan
21863;BME280;11096;51.338;12.524;2023-04-08T07:08:32;100716.69;;;14.36;nan
21863;BME280;11096;51.338;12.524;2023-04-08T07:10:58;100714.31;;;14.44;nan
21863;BME280;11096;51.338;12.524;2023-04-08T07:13:23;100712.91;;;14.51;nan
21863;BME280;11096;51.338;12.524;2023-04-08T07:15:48;100716.28;;;14.65;nan
21863;BME280;11096;51.338;12.524;2023-04-08T07:18:14;100727.94;;;14.60;nan
21863;BME280;11096;51.338;12.524;2023-04-08T07:20:39;100721.16;;;14.69;nan
21863;BME280;11096;51.338;12.524;2023-04-08T07:23:06;100720.69;;;14.75;nan
21863;BME280;11096;51.338;12.524;2023-04-08T07:25:32;100734.84;;;14.73;nan
21863;BME280;11096;51.338;12.524;2023-04-08T07:27:59;100730.56;;;14.72;nan
21863;BME280;11096;51.338;12.524;2023-04-08T07:30:24;100734.94;;;14.94;nan
21863;BME280;11096;51.338;12.524;2023-04-08T07:32:50;100739.38;;;15.05;nan
21863;BME280;11096;51.338;12.524;2023-04-08T07:35:15;100737.56;;;15.05;nan
21863;BME280;11096;51.338;12.524;2023-04-08T07:37:49;100727.56;;;15.21;nan
21863;BME280;11096;51.338;12.524;2023-04-08T07:40:19;100733.03;;;15.18;nan
21863;BME280;11096;51.338;12.524;2023-04-08T07:42:45;100731.13;;;15.20;nan
21863;BME280;11096;51.338;12.524;2023-04-08T07:45:10;100736.72;;;15.27;nan
21863;BME280;11096;51.338;12.524;2023-04-08T07:47:36;100732.44;;;15.81;nan
21863;BME280;11096;51.338;12.524;2023-04-08T07:50:02;100739.19;;;16.16;nan
21863;BME280;11096;51.338;12.524;2023-04-08T07:52:29;100734.13;;;16.45;nan
21863;BME280;11096;51.338;12.524;2023-04-08T07:54:55;100736.31;;;16.40;nan
21863;BME280;11096;51.338;12.524;2023-04-08T07:57:20;100747.06;;;16.16;nan
21863;BME280;11096;51.338;12.524;2023-04-08T07:59:46;100745.72;;;16.21;nan
21863;BME280;11096;51.338;12.524;2023-04-08T08:02:11;100751.22;;;16.18;nan
21863;BME280;11096;51.338;12.524;2023-04-08T08:04:37;100750.91;;;16.33;nan
21863;BME280;11096;51.338;12.524;2023-04-08T08:07:02;100749.63;;;15.95;nan
21863;BME280;11096;51.338;12.524;2023-04-08T08:09:28;100758.03;;;15.77;nan
21863;BME280;11096;51.338;12.524;2023-04-08T08:11:53;100759.59;;;15.80;nan
21863;BME280;11096;51.338;12.524;2023-04-08T08:14:18;100756.94;;;15.91;nan
21863;BME280;11096;51.338;12.524;2023-04-08T08:16:44;100755.09;;;16.03;nan
21863;BME280;11096;51.338;12.524;2023-04-08T08:19:09;100763.44;;;16.50;nan
21863;BME280;11096;51.338;12.524;2023-04-08T08:21:36;100760.16;;;16.58;nan
21863;BME280;11096;51.338;12.524;2023-04-08T08:24:02;100757.59;;;16.88;nan
21863;BME280;11096;51.338;12.524;2023-04-08T08:26:27;100764.50;;;16.89;nan
21863;BME280;11096;51.338;12.524;2023-04-08T08:28:53;100766.03;;;16.92;nan
21863;BME280;11096;51.338;12.524;2023-04-08T08:31:18;100759.59;;;17.06;nan
21863;BME280;11096;51.338;12.524;2023-04-08T08:33:44;100768.06;;;17.19;nan
21863;BME280;11096;51.338;12.524;2023-04-08T08:36:11;100769.56;;;17.52;nan
21863;BME280;11096;51.338;12.524;2023-04-08T08:38:36;100763.53;;;17.81;nan
21863;BME280;11096;51.338;12.524;2023-04-08T08:41:01;100764.66;;;17.28;nan
21863;BME280;11096;51.338;12.524;2023-04-08T08:43:28;100766.25;;;17.70;nan
21863;BME280;11096;51.338;12.524;2023-04-08T08:45:54;100773.28;;;17.69;nan
21863;BME280;11096;51.338;12.524;2023-04-08T08:48:19;100762.50;;;18.40;nan
21863;BME280;11096;51.338;12.524;2023-04-08T08:50:45;100767.25;;;18.17;nan
21863;BME280;11096;51.338;12.524;2023-04-08T08:53:11;100778.88;;;18.44;nan
21863;BME280;11096;51.338;12.524;2023-04-08T08:55:37;100774.16;;;18.18;nan
21863;BME280;11096;51.338;12.524;2023-04-08T08:58:04;100790.03;;;18.65;nan
21863;BME280;11096;51.338;12.524;2023-04-08T09:00:39;100796.31;;;18.45;nan
21863;BME280;11096;51.338;12.524;2023-04-08T09:03:37;100796.88;;;18.49;nan
21863;BME280;11096;51.338;12.524;2023-04-08T09:06:02;100800.34;;;18.10;nan
21863;BME280;11096;51.338;12.524;2023-04-08T09:11:17;100811.44;;;18.04;nan
21863;BME280;11096;51.338;12.524;2023-04-08T09:13:45;100805.59;;;17.91;nan
21863;BME280;11096;51.338;12.524;2023-04-08T09:16:16;100808.44;;;17.68;nan
21863;BME280;11096;51.338;12.524;2023-04-08T09:18:44;100814.47;;;17.90;nan
21863;BME280;11096;51.338;12.524;2023-04-08T09:21:12;100805.72;;;17.99;nan
21863;BME280;11096;51.338;12.524;2023-04-08T09:26:13;100811.84;;;18.19;nan
21863;BME280;11096;51.338;12.524;2023-04-08T09:28:39;100818.19;;;18.26;nan
21863;BME280;11096;51.338;12.524;2023-04-08T09:31:22;100809.75;;;18.32;nan
21863;BME280;11096;51.338;12.524;2023-04-08T09:33:49;100811.69;;;18.30;nan
21863;BME280;11096;51.338;12.524;2023-04-08T09:36:15;100814.31;;;18.30;nan
21863;BME280;11096;51.338;12.524;2023-04-08T09:38:42;100822.00;;;17.73;nan
21863;BME280;11096;51.338;12.524;2023-04-08T09:41:08;100827.06;;;17.96;nan
21863;BME280;11096;51.338;12.524;2023-04-08T09:43:41;100825.66;;;18.11;nan
21863;BME280;11096;51.338;12.524;2023-04-08T09:46:13;100830.66;;;17.95;nan
21863;BME280;11096;51.338;12.524;2023-04-08T09:48:45;100824.28;;;17.97;nan
21863;BME280;11096;51.338;12.524;2023-04-08T09:51:14;100829.38;;;17.89;nan
21863;BME280;11096;51.338;12.524;2023-04-08T09:53:47;100834.41;;;17.92;nan
21863;BME280;11096;51.338;12.524;2023-04-08T09:56:16;100834.81;;;17.88;nan
21863;BME280;11096;51.338;12.524;2023-04-08T09:58:58;100839.81;;;18.30;nan
21863;BME280;11096;51.338;12.524;2023-04-08T10:01:51;100833.56;;;18.50;nan
21863;BME280;11096;51.338;12.524;2023-04-08T10:04:19;100840.38;;;18.04;nan
21863;BME280;11096;51.338;12.524;2023-04-08T10:06:51;100842.97;;;18.23;nan
21863;BME280;11096;51.338;12.524;2023-04-08T10:09:20;100844.53;;;18.16;nan
21863;BME280;11096;51.338;12.524;2023-04-08T10:11:47;100848.38;;;18.02;nan
21863;BME280;11096;51.338;12.524;2023-04-08T10:14:12;100839.34;;;17.86;nan
21863;BME280;11096;51.338;12.524;2023-04-08T10:16:38;100846.03;;;18.09;nan
21863;BME280;11096;51.338;12.524;2023-04-08T10:19:36;100845.03;;;18.88;nan
21863;BME280;11096;51.338;12.524;2023-04-08T10:22:03;100836.16;;;18.89;nan
21863;BME280;11096;51.338;12.524;2023-04-08T10:24:28;100837.94;;;18.98;nan
21863;BME280;11096;51.338;12.524;2023-04-08T10:26:53;100842.69;;;19.32;nan
21863;BME280;11096;51.338;12.524;2023-04-08T10:31:50;100842.84;;;18.54;nan
21863;BME280;11096;51.338;12.524;2023-04-08T10:34:18;100851.56;;;18.45;nan
21863;BME280;11096;51.338;12.524;2023-04-08T10:36:45;100850.75;;;18.54;nan
21863;BME280;11096;51.338;12.524;2023-04-08T10:39:14;100857.25;;;18.60;nan
21863;BME280;11096;51.338;12.524;2023-04-08T10:41:44;100850.56;;;18.65;nan
21863;BME280;11096;51.338;12.524;2023-04-08T10:44:20;100852.53;;;18.63;nan
21863;BME280;11096;51.338;12.524;2023-04-08T10:46:46;100855.22;;;17.65;nan
21863;BME280;11096;51.338;12.524;2023-04-08T10:49:13;100851.81;;;17.93;nan
21863;BME280;11096;51.338;12.524;2023-04-08T10:51:39;100860.03;;;18.19;nan
21863;BME280;11096;51.338;12.524;2023-04-08T10:54:16;100858.06;;;18.41;nan
21863;BME280;11096;51.338;12.524;2023-04-08T10:56:46;100857.81;;;18.24;nan
21863;BME280;11096;51.338;12.524;2023-04-08T10:59:13;100853.63;;;17.93;nan
21863;BME280;11096;51.338;12.524;2023-04-08T11:01:44;100855.84;;;17.88;nan
21863;BME280;11096;51.338;12.524;2023-04-08T11:04:15;100848.13;;;18.25;nan
21863;BME280;11096;51.338;12.524;2023-04-08T11:06:42;100854.19;;;18.45;nan
21863;BME280;11096;51.338;12.524;2023-04-08T11:09:08;100852.13;;;18.39;nan
21863;BME280;11096;51.338;12.524;2023-04-08T11:11:34;100849.75;;;18.26;nan
21863;BME280;11096;51.338;12.524;2023-04-08T11:14:00;100851.97;;;18.31;nan
21863;BME280;11096;51.338;12.524;2023-04-08T11:16:26;100850.34;;;18.49;nan
21863;BME280;11096;51.338;12.524;2023-04-08T11:18:53;100855.56;;;18.69;nan
21863;BME280;11096;51.338;12.524;2023-04-08T11:21:22;100863.88;;;18.93;nan
21863;BME280;11096;51.338;12.524;2023-04-08T11:23:51;100852.53;;;18.73;nan
21863;BME280;11096;51.338;12.524;2023-04-08T11:26:20;100849.91;;;18.44;nan
21863;BME280;11096;51.338;12.524;2023-04-08T11:28:46;100851.28;;;18.77;nan
21863;BME280;11096;51.338;12.524;2023-04-08T11:31:15;100849.63;;;18.76;nan
21863;BME280;11096;51.338;12.524;2023-04-08T11:33:47;100853.75;;;18.98;nan
21863;BME280;11096;51.338;12.524;2023-04-08T11:36:14;100850.16;;;18.70;nan
21863;BME280;11096;51.338;12.524;2023-04-08T11:38:41;100851.44;;;18.27;nan
21863;BME280;11096;51.338;12.524;2023-04-08T11:41:06;100851.16;;;18.40;nan
21863;BME280;11096;51.338;12.524;2023-04-08T11:43:32;100847.41;;;18.81;nan
21863;BME280;11096;51.338;12.524;2023-04-08T11:45:57;100846.34;;;19.12;nan
21863;BME280;11096;51.338;12.524;2023-04-08T11:48:23;100844.22;;;19.25;nan
21863;BME280;11096;51.338;12.524;2023-04-08T11:51:01;100845.47;;;19.21;nan
21863;BME280;11096;51.338;12.524;2023-04-08T11:53:27;100850.28;;;18.98;nan
21863;BME280;11096;51.338;12.524;2023-04-08T11:55:53;100844.63;;;18.83;nan
21863;BME280;11096;51.338;12.524;2023-04-08T11:58:20;100843.78;;;18.82;nan
21863;BME280;11096;51.338;12.524;2023-04-08T12:00:45;100845.59;;;18.82;nan
21863;BME280;11096;51.338;12.524;2023-04-08T12:03:12;100848.19;;;18.92;nan
21863;BME280;11096;51.338;12.524;2023-04-08T12:05:37;100853.19;;;18.85;nan
21863;BME280;11096;51.338;12.524;2023-04-08T12:08:03;100852.25;;;18.66;nan
21863;BME280;11096;51.338;12.524;2023-04-08T12:10:29;100850.63;;;18.46;nan
21863;BME280;11096;51.338;12.524;2023-04-08T12:12:54;100853.25;;;18.17;nan
21863;BME280;11096;51.338;12.524;2023-04-08T12:15:20;100858.06;;;18.02;nan
21863;BME280;11096;51.338;12.524;2023-04-08T12:17:45;100857.41;;;18.19;nan
21863;BME280;11096;51.338;12.524;2023-04-08T12:20:11;100855.59;;;18.30;nan
21863;BME280;11096;51.338;12.524;2023-04-08T12:22:37;100858.91;;;18.61;nan
21863;BME280;11096;51.338;12.524;2023-04-08T12:25:03;100855.84;;;18.65;nan
21863;BME280;11096;51.338;12.524;2023-04-08T12:27:29;100862.78;;;18.28;nan
21863;BME280;11096;51.338;12.524;2023-04-08T12:29:57;100862.50;;;18.11;nan
21863;BME280;11096;51.338;12.524;2023-04-08T12:32:23;100863.91;;;18.15;nan
21863;BME280;11096;51.338;12.524;2023-04-08T12:34:49;100855.06;;;18.16;nan
21863;BME280;11096;51.338;12.524;2023-04-08T12:37:15;100865.78;;;17.84;nan
21863;BME280;11096;51.338;12.524;2023-04-08T12:39:41;100866.81;;;18.32;nan
21863;BME280;11096;51.338;12.524;2023-04-08T12:42:06;100855.31;;;18.52;nan
21863;BME280;11096;51.338;12.524;2023-04-08T12:44:31;100857.66;;;18.65;nan
21863;BME280;11096;51.338;12.524;2023-04-08T12:46:57;100858.56;;;19.13;nan
21863;BME280;11096;51.338;12.524;2023-04-08T12:49:24;100860.22;;;19.41;nan
21863;BME280;11096;51.338;12.524;2023-04-08T12:51:49;100854.00;;;19.42;nan
21863;BME280;11096;51.338;12.524;2023-04-08T12:54:15;100852.25;;;19.23;nan
21863;BME280;11096;51.338;12.524;2023-04-08T12:56:41;100851.50;;;19.41;nan
21863;BME280;11096;51.338;12.524;2023-04-08T12:59:07;100848.88;;;19.68;nan
21863;BME280;11096;51.338;12.524;2023-04-08T13:01:33;100847.75;;;19.71;nan
21863;BME280;11096;51.338;12.524;2023-04-08T13:03:58;100852.63;;;19.66;nan
21863;BME280;11096;51.338;12.524;2023-04-08T13:06:24;100851.53;;;19.59;nan